sensor_id;sensor_type;location;lat;lon;timestamp;temperature;humidity
48860;DHT22;34679;51.436;-2.518;2022-09-20T00:01:24;13.10;99.90
48860;DHT22;34679;51.436;-2.518;2022-09-20T00:03:55;13.10;99.90
48860;DHT22;34679;51.436;-2.518;2022-09-20T00:06:26;13.10;99.90
48860;DHT22;34679;51.436;-2.518;2022-09-20T00:08:52;13.20;99.90
48860;DHT22;34679;51.436;-2.518;2022-09-20T00:11:22;13.20;99.90
48860;DHT22;34679;51.436;-2.518;2022-09-20T00:13:50;13.10;99.90
48860;DHT22;34679;51.436;-2.518;2022-09-20T00:16:21;13.10;99.90
48860;DHT22;34679;51.436;-2.518;2022-09-20T00:18:49;13.10;99.90
48860;DHT22;34679;51.436;-2.518;2022-09-20T00:21:20;13.00;99.90
48860;DHT22;34679;51.436;-2.518;2022-09-20T00:23:46;13.00;99.90
48860;DHT22;34679;51.436;-2.518;2022-09-20T00:26:12;13.00;99.90
48860;DHT22;34679;51.436;-2.518;2022-09-20T00:28:42;12.90;99.90
48860;DHT22;34679;51.436;-2.518;2022-09-20T00:31:09;13.00;99.90
48860;DHT22;34679;51.436;-2.518;2022-09-20T00:33:35;12.90;99.90
48860;DHT22;34679;51.436;-2.518;2022-09-20T00:36:19;12.90;99.90
48860;DHT22;34679;51.436;-2.518;2022-09-20T00:38:46;12.90;99.90
48860;DHT22;34679;51.436;-2.518;2022-09-20T00:41:11;12.90;99.90
48860;DHT22;34679;51.436;-2.518;2022-09-20T00:43:40;12.90;99.90
48860;DHT22;34679;51.436;-2.518;2022-09-20T00:48:57;12.80;99.90
48860;DHT22;34679;51.436;-2.518;2022-09-20T00:51:32;12.90;99.90
48860;DHT22;34679;51.436;-2.518;2022-09-20T00:54:01;12.90;99.90
48860;DHT22;34679;51.436;-2.518;2022-09-20T00:56:34;12.90;99.90
48860;DHT22;34679;51.436;-2.518;2022-09-20T00:59:10;12.90;99.90
48860;DHT22;34679;51.436;-2.518;2022-09-20T01:01:36;12.90;99.90
48860;DHT22;34679;51.436;-2.518;2022-09-20T01:04:03;12.90;99.90
48860;DHT22;34679;51.436;-2.518;2022-09-20T01:06:30;12.80;99.90
48860;DHT22;34679;51.436;-2.518;2022-09-20T01:08:57;12.80;99.90
48860;DHT22;34679;51.436;-2.518;2022-09-20T01:11:29;12.80;99.90
48860;DHT22;34679;51.436;-2.518;2022-09-20T01:13:55;12.80;99.90
48860;DHT22;34679;51.436;-2.518;2022-09-20T01:16:21;13.50;99.90
48860;DHT22;34679;51.436;-2.518;2022-09-20T01:18:49;13.00;99.90
48860;DHT22;34679;51.436;-2.518;2022-09-20T01:21:16;12.90;99.90
48860;DHT22;34679;51.436;-2.518;2022-09-20T01:26:27;12.80;99.90
48860;DHT22;34679;51.436;-2.518;2022-09-20T01:31:32;12.70;99.90
48860;DHT22;34679;51.436;-2.518;2022-09-20T01:36:55;12.60;99.90
48860;DHT22;34679;51.436;-2.518;2022-09-20T01:42:07;12.60;99.90
48860;DHT22;34679;51.436;-2.518;2022-09-20T01:56:26;12.60;99.90
48860;DHT22;34679;51.436;-2.518;2022-09-20T02:02:23;12.60;99.90
48860;DHT22;34679;51.436;-2.518;2022-09-20T02:04:51;12.70;99.90
48860;DHT22;34679;51.436;-2.518;2022-09-20T02:07:40;12.70;99.90
48860;DHT22;34679;51.436;-2.518;2022-09-20T02:13:00;12.60;99.90
48860;DHT22;34679;51.436;-2.518;2022-09-20T02:15:51;12.60;99.90
48860;DHT22;34679;51.436;-2.518;2022-09-20T02:24:12;12.50;99.90
48860;DHT22;34679;51.436;-2.518;2022-09-20T02:38:28;12.50;99.90
48860;DHT22;34679;51.436;-2.518;2022-09-20T02:52:31;12.40;99.90
48860;DHT22;34679;51.436;-2.518;2022-09-20T02:57:35;12.40;99.90
48860;DHT22;34679;51.436;-2.518;2022-09-20T03:00:13;12.40;99.90
48860;DHT22;34679;51.436;-2.518;2022-09-20T03:05:33;12.40;99.90
48860;DHT22;34679;51.436;-2.518;2022-09-20T03:13:31;12.40;99.90
48860;DHT22;34679;51.436;-2.518;2022-09-20T03:19:28;12.40;99.90
48860;DHT22;34679;51.436;-2.518;2022-09-20T03:44:39;11.50;99.90
48860;DHT22;34679;51.436;-2.518;2022-09-20T03:50:11;11.30;99.90
48860;DHT22;34679;51.436;-2.518;2022-09-20T03:58:55;11.20;99.90
48860;DHT22;34679;51.436;-2.518;2022-09-20T04:16:06;10.80;99.90
48860;DHT22;34679;51.436;-2.518;2022-09-20T04:21:30;10.60;99.90
48860;DHT22;34679;51.436;-2.518;2022-09-20T04:27:41;10.50;99.90
48860;DHT22;34679;51.436;-2.518;2022-09-20T04:30:23;10.40;99.90
48860;DHT22;34679;51.436;-2.518;2022-09-20T04:38:36;10.30;99.90
48860;DHT22;34679;51.436;-2.518;2022-09-20T05:00:32;10.10;99.90
48860;DHT22;34679;51.436;-2.518;2022-09-20T05:29:11;9.90;99.90
48860;DHT22;34679;51.436;-2.518;2022-09-20T05:31:55;9.80;99.90
48860;DHT22;34679;51.436;-2.518;2022-09-20T05:34:29;9.80;99.90
48860;DHT22;34679;51.436;-2.518;2022-09-20T05:37:15;9.80;99.90
48860;DHT22;34679;51.436;-2.518;2022-09-20T05:40:34;9.80;99.90
48860;DHT22;34679;51.436;-2.518;2022-09-20T05:43:12;9.80;99.90
48860;DHT22;34679;51.436;-2.518;2022-09-20T05:57:43;10.00;99.90
48860;DHT22;34679;51.436;-2.518;2022-09-20T06:13:56;10.70;99.90
48860;DHT22;34679;51.436;-2.518;2022-09-20T06:17:03;10.80;99.90
48860;DHT22;34679;51.436;-2.518;2022-09-20T06:19:38;10.90;99.90
48860;DHT22;34679;51.436;-2.518;2022-09-20T06:25:17;11.20;99.90
48860;DHT22;34679;51.436;-2.518;2022-09-20T06:28:03;11.60;99.90
48860;DHT22;34679;51.436;-2.518;2022-09-20T06:30:34;11.90;99.90
48860;DHT22;34679;51.436;-2.518;2022-09-20T06:35:38;12.70;99.90
48860;DHT22;34679;51.436;-2.518;2022-09-20T06:41:10;13.90;99.90
48860;DHT22;34679;51.436;-2.518;2022-09-20T06:43:56;14.50;99.90
48860;DHT22;34679;51.436;-2.518;2022-09-20T06:46:27;14.80;99.90
48860;DHT22;34679;51.436;-2.518;2022-09-20T06:48:54;15.10;99.90
48860;DHT22;34679;51.436;-2.518;2022-09-20T06:51:22;15.00;99.90
48860;DHT22;34679;51.436;-2.518;2022-09-20T06:53:48;14.80;99.90
48860;DHT22;34679;51.436;-2.518;2022-09-20T06:56:19;14.60;99.90
48860;DHT22;34679;51.436;-2.518;2022-09-20T06:58:47;14.50;99.90
48860;DHT22;34679;51.436;-2.518;2022-09-20T07:01:14;15.20;99.90
48860;DHT22;34679;51.436;-2.518;2022-09-20T07:03:41;15.60;99.90
48860;DHT22;34679;51.436;-2.518;2022-09-20T07:06:07;15.90;99.90
48860;DHT22;34679;51.436;-2.518;2022-09-20T07:08:33;16.00;99.90
48860;DHT22;34679;51.436;-2.518;2022-09-20T07:11:08;16.20;99.90
48860;DHT22;34679;51.436;-2.518;2022-09-20T07:13:35;16.40;99.90
48860;DHT22;34679;51.436;-2.518;2022-09-20T07:16:06;16.90;99.90
48860;DHT22;34679;51.436;-2.518;2022-09-20T07:18:34;17.10;99.90
48860;DHT22;34679;51.436;-2.518;2022-09-20T07:21:00;17.70;99.90
48860;DHT22;34679;51.436;-2.518;2022-09-20T07:23:26;18.00;99.90
48860;DHT22;34679;51.436;-2.518;2022-09-20T07:25:55;18.10;99.90
48860;DHT22;34679;51.436;-2.518;2022-09-20T07:28:31;18.10;99.90
48860;DHT22;34679;51.436;-2.518;2022-09-20T07:30:58;17.90;99.90
48860;DHT22;34679;51.436;-2.518;2022-09-20T07:33:24;17.50;99.90
48860;DHT22;34679;51.436;-2.518;2022-09-20T07:35:53;17.10;99.90
48860;DHT22;34679;51.436;-2.518;2022-09-20T07:38:21;16.70;99.90
48860;DHT22;34679;51.436;-2.518;2022-09-20T07:40:57;16.50;99.90
48860;DHT22;34679;51.436;-2.518;2022-09-20T07:43:24;16.40;99.90
48860;DHT22;34679;51.436;-2.518;2022-09-20T07:45:51;16.10;99.90
48860;DHT22;34679;51.436;-2.518;2022-09-20T07:48:33;15.90;99.90
48860;DHT22;34679;51.436;-2.518;2022-09-20T07:51:17;15.70;99.90
48860;DHT22;34679;51.436;-2.518;2022-09-20T07:53:43;15.70;99.90
48860;DHT22;34679;51.436;-2.518;2022-09-20T07:56:11;15.70;99.90
48860;DHT22;34679;51.436;-2.518;2022-09-20T07:58:37;15.60;99.90
48860;DHT22;34679;51.436;-2.518;2022-09-20T08:01:07;15.50;99.90
48860;DHT22;34679;51.436;-2.518;2022-09-20T08:03:34;15.40;99.90
48860;DHT22;34679;51.436;-2.518;2022-09-20T08:06:05;15.30;99.90
48860;DHT22;34679;51.436;-2.518;2022-09-20T08:08:36;15.30;99.90
48860;DHT22;34679;51.436;-2.518;2022-09-20T08:11:08;15.20;99.90
48860;DHT22;34679;51.436;-2.518;2022-09-20T08:13:38;15.10;99.90
48860;DHT22;34679;51.436;-2.518;2022-09-20T08:16:06;15.10;99.90
48860;DHT22;34679;51.436;-2.518;2022-09-20T08:18:33;15.20;99.90
48860;DHT22;34679;51.436;-2.518;2022-09-20T08:21:07;15.40;99.90
48860;DHT22;34679;51.436;-2.518;2022-09-20T08:23:35;15.70;99.90
48860;DHT22;34679;51.436;-2.518;2022-09-20T08:26:01;16.10;99.90
48860;DHT22;34679;51.436;-2.518;2022-09-20T08:28:28;16.60;99.90
48860;DHT22;34679;51.436;-2.518;2022-09-20T08:31:03;17.40;99.90
48860;DHT22;34679;51.436;-2.518;2022-09-20T08:33:29;18.30;99.90
48860;DHT22;34679;51.436;-2.518;2022-09-20T08:35:57;19.00;99.90
48860;DHT22;34679;51.436;-2.518;2022-09-20T08:38:23;19.60;99.90
48860;DHT22;34679;51.436;-2.518;2022-09-20T08:41:01;20.50;99.90
48860;DHT22;34679;51.436;-2.518;2022-09-20T08:43:33;21.30;99.90
48860;DHT22;34679;51.436;-2.518;2022-09-20T08:46:01;21.60;99.90
48860;DHT22;34679;51.436;-2.518;2022-09-20T08:48:31;21.80;99.90
48860;DHT22;34679;51.436;-2.518;2022-09-20T08:50:59;21.30;99.90
48860;DHT22;34679;51.436;-2.518;2022-09-20T08:53:26;21.10;99.90
48860;DHT22;34679;51.436;-2.518;2022-09-20T08:55:55;20.80;99.90
48860;DHT22;34679;51.436;-2.518;2022-09-20T08:58:27;20.60;99.90
48860;DHT22;34679;51.436;-2.518;2022-09-20T09:00:54;20.00;99.90
48860;DHT22;34679;51.436;-2.518;2022-09-20T09:03:23;19.50;99.90
48860;DHT22;34679;51.436;-2.518;2022-09-20T09:05:54;19.40;99.90
48860;DHT22;34679;51.436;-2.518;2022-09-20T09:08:32;19.40;99.90
48860;DHT22;34679;51.436;-2.518;2022-09-20T09:11:07;19.30;99.90
48860;DHT22;34679;51.436;-2.518;2022-09-20T09:14:19;19.40;99.90
48860;DHT22;34679;51.436;-2.518;2022-09-20T09:16:26;19.80;99.90
48860;DHT22;34679;51.436;-2.518;2022-09-20T09:18:53;20.20;99.90
48860;DHT22;34679;51.436;-2.518;2022-09-20T09:21:20;20.50;99.90
48860;DHT22;34679;51.436;-2.518;2022-09-20T09:26:42;21.00;99.90
48860;DHT22;34679;51.436;-2.518;2022-09-20T09:29:20;21.40;99.90
48860;DHT22;34679;51.436;-2.518;2022-09-20T09:31:49;21.50;99.90
48860;DHT22;34679;51.436;-2.518;2022-09-20T09:34:32;22.00;99.90
48860;DHT22;34679;51.436;-2.518;2022-09-20T09:36:59;22.10;99.90
48860;DHT22;34679;51.436;-2.518;2022-09-20T09:42:19;21.90;99.90
48860;DHT22;34679;51.436;-2.518;2022-09-20T09:44:45;22.20;99.90
48860;DHT22;34679;51.436;-2.518;2022-09-20T09:47:27;22.40;99.90
48860;DHT22;34679;51.436;-2.518;2022-09-20T09:49:57;22.20;99.90
48860;DHT22;34679;51.436;-2.518;2022-09-20T09:52:24;22.40;99.90
48860;DHT22;34679;51.436;-2.518;2022-09-20T09:54:58;22.60;99.90
48860;DHT22;34679;51.436;-2.518;2022-09-20T10:00:14;22.40;99.90
48860;DHT22;34679;51.436;-2.518;2022-09-20T10:05:36;22.40;99.90
48860;DHT22;34679;51.436;-2.518;2022-09-20T10:11:10;22.40;99.90
48860;DHT22;34679;51.436;-2.518;2022-09-20T10:25:19;22.10;99.90
48860;DHT22;34679;51.436;-2.518;2022-09-20T10:30:22;21.60;99.90
48860;DHT22;34679;51.436;-2.518;2022-09-20T10:32:54;21.50;99.90
48860;DHT22;34679;51.436;-2.518;2022-09-20T10:38:17;21.50;99.90
48860;DHT22;34679;51.436;-2.518;2022-09-20T10:44:20;21.40;99.90
48860;DHT22;34679;51.436;-2.518;2022-09-20T10:47:14;21.30;99.90
48860;DHT22;34679;51.436;-2.518;2022-09-20T10:53:21;21.60;99.90
48860;DHT22;34679;51.436;-2.518;2022-09-20T10:56:35;21.90;99.90
48860;DHT22;34679;51.436;-2.518;2022-09-20T11:07:15;22.40;99.90
48860;DHT22;34679;51.436;-2.518;2022-09-20T11:10:05;22.40;99.90
48860;DHT22;34679;51.436;-2.518;2022-09-20T11:13:03;21.90;99.90
48860;DHT22;34679;51.436;-2.518;2022-09-20T11:15:40;21.50;99.90
48860;DHT22;34679;51.436;-2.518;2022-09-20T11:18:27;21.50;99.90
48860;DHT22;34679;51.436;-2.518;2022-09-20T11:21:05;21.70;99.90
48860;DHT22;34679;51.436;-2.518;2022-09-20T11:26:09;21.90;99.90
48860;DHT22;34679;51.436;-2.518;2022-09-20T11:28:39;21.70;99.90
48860;DHT22;34679;51.436;-2.518;2022-09-20T11:37:01;21.30;99.90
48860;DHT22;34679;51.436;-2.518;2022-09-20T11:41:37;21.00;99.90
48860;DHT22;34679;51.436;-2.518;2022-09-20T11:44:08;21.00;99.90
48860;DHT22;34679;51.436;-2.518;2022-09-20T11:50:09;21.10;99.90
48860;DHT22;34679;51.436;-2.518;2022-09-20T12:00:31;20.80;99.90
48860;DHT22;34679;51.436;-2.518;2022-09-20T12:03:00;20.50;99.90
48860;DHT22;34679;51.436;-2.518;2022-09-20T12:05:38;20.50;99.90
48860;DHT22;34679;51.436;-2.518;2022-09-20T12:08:07;20.60;99.90
48860;DHT22;34679;51.436;-2.518;2022-09-20T12:10:38;20.70;99.90
48860;DHT22;34679;51.436;-2.518;2022-09-20T12:13:18;20.50;99.90
48860;DHT22;34679;51.436;-2.518;2022-09-20T12:16:00;20.40;99.90
48860;DHT22;34679;51.436;-2.518;2022-09-20T12:18:37;20.30;99.90
48860;DHT22;34679;51.436;-2.518;2022-09-20T12:26:07;20.80;99.90
48860;DHT22;34679;51.436;-2.518;2022-09-20T12:28:42;21.00;99.90
48860;DHT22;34679;51.436;-2.518;2022-09-20T12:36:38;20.90;99.60
48860;DHT22;34679;51.436;-2.518;2022-09-20T12:41:58;21.20;98.50
48860;DHT22;34679;51.436;-2.518;2022-09-20T12:55:12;21.20;98.40
48860;DHT22;34679;51.436;-2.518;2022-09-20T12:57:56;21.20;97.90
48860;DHT22;34679;51.436;-2.518;2022-09-20T13:05:42;21.10;97.70
48860;DHT22;34679;51.436;-2.518;2022-09-20T13:08:21;20.70;97.90
48860;DHT22;34679;51.436;-2.518;2022-09-20T13:11:09;20.50;98.30
48860;DHT22;34679;51.436;-2.518;2022-09-20T13:14:01;20.60;98.80
48860;DHT22;34679;51.436;-2.518;2022-09-20T13:16:48;20.90;98.80
48860;DHT22;34679;51.436;-2.518;2022-09-20T13:19:18;21.10;98.80
48860;DHT22;34679;51.436;-2.518;2022-09-20T13:22:07;21.20;98.70
48860;DHT22;34679;51.436;-2.518;2022-09-20T13:24:43;21.10;98.40
48860;DHT22;34679;51.436;-2.518;2022-09-20T13:27:36;21.20;98.80
48860;DHT22;34679;51.436;-2.518;2022-09-20T13:32:45;21.60;98.70
48860;DHT22;34679;51.436;-2.518;2022-09-20T13:37:59;22.00;99.10
48860;DHT22;34679;51.436;-2.518;2022-09-20T13:40:38;22.10;99.10
48860;DHT22;34679;51.436;-2.518;2022-09-20T13:43:31;22.00;99.10
48860;DHT22;34679;51.436;-2.518;2022-09-20T13:46:05;22.10;99.30
48860;DHT22;34679;51.436;-2.518;2022-09-20T13:48:31;21.80;99.10
48860;DHT22;34679;51.436;-2.518;2022-09-20T13:50:57;21.80;99.20
48860;DHT22;34679;51.436;-2.518;2022-09-20T13:53:26;21.90;99.00
48860;DHT22;34679;51.436;-2.518;2022-09-20T13:55:52;22.20;99.00
48860;DHT22;34679;51.436;-2.518;2022-09-20T13:58:27;22.20;98.40
48860;DHT22;34679;51.436;-2.518;2022-09-20T14:03:59;22.20;98.60
48860;DHT22;34679;51.436;-2.518;2022-09-20T14:06:27;22.30;98.00
48860;DHT22;34679;51.436;-2.518;2022-09-20T14:08:55;22.30;98.50
48860;DHT22;34679;51.436;-2.518;2022-09-20T14:11:23;22.40;98.00
48860;DHT22;34679;51.436;-2.518;2022-09-20T14:13:54;21.60;98.70
48860;DHT22;34679;51.436;-2.518;2022-09-20T14:16:32;21.70;99.20
48860;DHT22;34679;51.436;-2.518;2022-09-20T14:18:59;21.70;99.50
48860;DHT22;34679;51.436;-2.518;2022-09-20T14:21:27;22.00;99.10
48860;DHT22;34679;51.436;-2.518;2022-09-20T14:24:32;22.10;99.10
48860;DHT22;34679;51.436;-2.518;2022-09-20T14:27:18;22.30;98.30
48860;DHT22;34679;51.436;-2.518;2022-09-20T14:29:46;22.40;98.80
48860;DHT22;34679;51.436;-2.518;2022-09-20T14:37:25;22.00;99.40
48860;DHT22;34679;51.436;-2.518;2022-09-20T14:39:59;21.80;99.00
48860;DHT22;34679;51.436;-2.518;2022-09-20T14:42:46;21.60;99.00
48860;DHT22;34679;51.436;-2.518;2022-09-20T14:45:29;21.50;99.30
48860;DHT22;34679;51.436;-2.518;2022-09-20T14:47:57;21.70;99.50
48860;DHT22;34679;51.436;-2.518;2022-09-20T14:55:36;22.10;99.80
48860;DHT22;34679;51.436;-2.518;2022-09-20T14:58:10;22.00;98.90
48860;DHT22;34679;51.436;-2.518;2022-09-20T15:00:52;22.20;98.50
48860;DHT22;34679;51.436;-2.518;2022-09-20T15:03:31;22.50;98.80
48860;DHT22;34679;51.436;-2.518;2022-09-20T15:05:57;22.40;99.70
48860;DHT22;34679;51.436;-2.518;2022-09-20T15:08:23;22.60;99.40
48860;DHT22;34679;51.436;-2.518;2022-09-20T15:10:49;22.60;98.60
48860;DHT22;34679;51.436;-2.518;2022-09-20T15:13:16;22.30;99.10
48860;DHT22;34679;51.436;-2.518;2022-09-20T15:15:42;22.40;99.40
48860;DHT22;34679;51.436;-2.518;2022-09-20T15:18:23;22.20;99.70
48860;DHT22;34679;51.436;-2.518;2022-09-20T15:20:52;22.00;99.80
48860;DHT22;34679;51.436;-2.518;2022-09-20T15:23:18;21.90;99.90
48860;DHT22;34679;51.436;-2.518;2022-09-20T15:25:45;21.70;99.90
48860;DHT22;34679;51.436;-2.518;2022-09-20T15:28:14;21.60;99.90
48860;DHT22;34679;51.436;-2.518;2022-09-20T15:30:46;21.40;99.90
48860;DHT22;34679;51.436;-2.518;2022-09-20T15:33:13;21.20;99.90
48860;DHT22;34679;51.436;-2.518;2022-09-20T15:35:39;20.80;99.90
48860;DHT22;34679;51.436;-2.518;2022-09-20T15:38:05;20.60;99.90
48860;DHT22;34679;51.436;-2.518;2022-09-20T15:40:34;20.40;99.90
48860;DHT22;34679;51.436;-2.518;2022-09-20T15:43:00;20.40;99.90
48860;DHT22;34679;51.436;-2.518;2022-09-20T15:45:26;20.30;99.90
48860;DHT22;34679;51.436;-2.518;2022-09-20T15:47:52;20.20;99.90
48860;DHT22;34679;51.436;-2.518;2022-09-20T15:50:22;20.10;99.90
48860;DHT22;34679;51.436;-2.518;2022-09-20T15:52:49;20.00;99.90
48860;DHT22;34679;51.436;-2.518;2022-09-20T15:55:16;20.00;99.90
48860;DHT22;34679;51.436;-2.518;2022-09-20T15:57:43;19.90;99.90
48860;DHT22;34679;51.436;-2.518;2022-09-20T16:00:09;19.90;99.90
48860;DHT22;34679;51.436;-2.518;2022-09-20T16:02:35;19.90;99.90
48860;DHT22;34679;51.436;-2.518;2022-09-20T16:05:01;19.70;99.90
48860;DHT22;34679;51.436;-2.518;2022-09-20T16:07:27;19.70;99.90
48860;DHT22;34679;51.436;-2.518;2022-09-20T16:09:54;19.60;99.90
48860;DHT22;34679;51.436;-2.518;2022-09-20T16:12:21;19.70;99.90
48860;DHT22;34679;51.436;-2.518;2022-09-20T16:14:47;19.50;99.90
48860;DHT22;34679;51.436;-2.518;2022-09-20T16:17:13;19.50;99.90
48860;DHT22;34679;51.436;-2.518;2022-09-20T16:19:39;19.40;99.90
48860;DHT22;34679;51.436;-2.518;2022-09-20T16:22:06;19.40;99.90
48860;DHT22;34679;51.436;-2.518;2022-09-20T16:24:34;19.40;99.90
48860;DHT22;34679;51.436;-2.518;2022-09-20T16:27:03;19.40;99.90
48860;DHT22;34679;51.436;-2.518;2022-09-20T16:29:31;19.50;99.90
48860;DHT22;34679;51.436;-2.518;2022-09-20T16:31:58;19.60;99.90
48860;DHT22;34679;51.436;-2.518;2022-09-20T16:34:30;19.60;99.90
48860;DHT22;34679;51.436;-2.518;2022-09-20T16:36:58;19.60;99.90
48860;DHT22;34679;51.436;-2.518;2022-09-20T16:39:25;19.60;99.90
48860;DHT22;34679;51.436;-2.518;2022-09-20T16:41:57;19.60;99.90
48860;DHT22;34679;51.436;-2.518;2022-09-20T16:44:25;19.60;99.90
48860;DHT22;34679;51.436;-2.518;2022-09-20T16:46:50;19.50;99.90
48860;DHT22;34679;51.436;-2.518;2022-09-20T16:49:16;19.60;99.90
48860;DHT22;34679;51.436;-2.518;2022-09-20T16:51:43;19.60;99.90
48860;DHT22;34679;51.436;-2.518;2022-09-20T16:54:12;19.60;99.90
48860;DHT22;34679;51.436;-2.518;2022-09-20T16:56:43;19.60;99.90
48860;DHT22;34679;51.436;-2.518;2022-09-20T16:59:10;19.60;99.90
48860;DHT22;34679;51.436;-2.518;2022-09-20T17:01:37;19.60;99.90
48860;DHT22;34679;51.436;-2.518;2022-09-20T17:04:04;19.60;99.90
48860;DHT22;34679;51.436;-2.518;2022-09-20T17:06:31;19.70;99.90
48860;DHT22;34679;51.436;-2.518;2022-09-20T17:08:59;19.60;99.90
48860;DHT22;34679;51.436;-2.518;2022-09-20T17:11:30;19.70;99.90
48860;DHT22;34679;51.436;-2.518;2022-09-20T17:13:56;19.60;99.90
48860;DHT22;34679;51.436;-2.518;2022-09-20T17:16:30;19.60;99.90
48860;DHT22;34679;51.436;-2.518;2022-09-20T17:18:58;19.60;99.90
48860;DHT22;34679;51.436;-2.518;2022-09-20T17:21:26;19.60;99.90
48860;DHT22;34679;51.436;-2.518;2022-09-20T17:23:54;19.50;99.90
48860;DHT22;34679;51.436;-2.518;2022-09-20T17:26:30;19.50;99.90
48860;DHT22;34679;51.436;-2.518;2022-09-20T17:28:58;19.50;99.90
48860;DHT22;34679;51.436;-2.518;2022-09-20T17:31:27;19.50;99.90
48860;DHT22;34679;51.436;-2.518;2022-09-20T17:33:56;19.50;99.90
48860;DHT22;34679;51.436;-2.518;2022-09-20T17:36:26;19.30;99.90
48860;DHT22;34679;51.436;-2.518;2022-09-20T17:38:55;19.30;99.90
48860;DHT22;34679;51.436;-2.518;2022-09-20T17:41:22;19.30;99.90
48860;DHT22;34679;51.436;-2.518;2022-09-20T17:43:52;19.20;99.90
48860;DHT22;34679;51.436;-2.518;2022-09-20T17:46:20;19.20;99.90
48860;DHT22;34679;51.436;-2.518;2022-09-20T17:48:55;19.10;99.90
48860;DHT22;34679;51.436;-2.518;2022-09-20T17:51:23;19.00;99.90
48860;DHT22;34679;51.436;-2.518;2022-09-20T17:53:50;19.00;99.90
48860;DHT22;34679;51.436;-2.518;2022-09-20T17:56:16;18.90;99.90
48860;DHT22;34679;51.436;-2.518;2022-09-20T17:58:42;18.80;99.90
48860;DHT22;34679;51.436;-2.518;2022-09-20T18:01:14;18.60;99.90
48860;DHT22;34679;51.436;-2.518;2022-09-20T18:03:44;18.50;99.90
48860;DHT22;34679;51.436;-2.518;2022-09-20T18:06:19;18.40;99.90
48860;DHT22;34679;51.436;-2.518;2022-09-20T18:08:47;18.30;99.90
48860;DHT22;34679;51.436;-2.518;2022-09-20T18:11:14;18.20;99.90
48860;DHT22;34679;51.436;-2.518;2022-09-20T18:13:40;18.10;99.90
48860;DHT22;34679;51.436;-2.518;2022-09-20T18:16:10;18.00;99.90
48860;DHT22;34679;51.436;-2.518;2022-09-20T18:18:38;17.90;99.90
48860;DHT22;34679;51.436;-2.518;2022-09-20T18:21:24;17.80;99.90
48860;DHT22;34679;51.436;-2.518;2022-09-20T18:23:51;17.70;99.90
48860;DHT22;34679;51.436;-2.518;2022-09-20T18:26:19;17.60;99.90
48860;DHT22;34679;51.436;-2.518;2022-09-20T18:28:58;17.40;99.90
48860;DHT22;34679;51.436;-2.518;2022-09-20T18:31:49;17.30;99.90
48860;DHT22;34679;51.436;-2.518;2022-09-20T18:34:18;17.20;99.90
48860;DHT22;34679;51.436;-2.518;2022-09-20T18:36:47;17.10;99.90
48860;DHT22;34679;51.436;-2.518;2022-09-20T18:39:25;17.00;99.90
48860;DHT22;34679;51.436;-2.518;2022-09-20T18:41:51;16.80;99.90
48860;DHT22;34679;51.436;-2.518;2022-09-20T18:44:17;16.70;99.90
48860;DHT22;34679;51.436;-2.518;2022-09-20T18:46:45;16.60;99.90
48860;DHT22;34679;51.436;-2.518;2022-09-20T18:49:11;16.50;99.90
48860;DHT22;34679;51.436;-2.518;2022-09-20T18:51:40;16.30;99.90
48860;DHT22;34679;51.436;-2.518;2022-09-20T18:54:07;16.20;99.90
48860;DHT22;34679;51.436;-2.518;2022-09-20T18:56:35;16.10;99.90
48860;DHT22;34679;51.436;-2.518;2022-09-20T18:59:22;16.10;99.90
48860;DHT22;34679;51.436;-2.518;2022-09-20T19:02:18;16.00;99.90
48860;DHT22;34679;51.436;-2.518;2022-09-20T19:04:57;15.90;99.90
48860;DHT22;34679;51.436;-2.518;2022-09-20T19:19:51;15.80;99.90
48860;DHT22;34679;51.436;-2.518;2022-09-20T19:23:00;15.60;99.90
48860;DHT22;34679;51.436;-2.518;2022-09-20T19:25:40;15.40;99.90
48860;DHT22;34679;51.436;-2.518;2022-09-20T19:28:13;15.40;99.90
48860;DHT22;34679;51.436;-2.518;2022-09-20T19:30:40;15.30;99.90
48860;DHT22;34679;51.436;-2.518;2022-09-20T19:33:17;15.30;99.90
48860;DHT22;34679;51.436;-2.518;2022-09-20T19:35:47;15.30;99.90
48860;DHT22;34679;51.436;-2.518;2022-09-20T19:38:29;15.40;99.90
48860;DHT22;34679;51.436;-2.518;2022-09-20T19:41:25;15.40;99.90
48860;DHT22;34679;51.436;-2.518;2022-09-20T19:52:11;15.70;99.90
48860;DHT22;34679;51.436;-2.518;2022-09-20T19:54:38;15.80;99.90
48860;DHT22;34679;51.436;-2.518;2022-09-20T19:57:06;15.80;99.90
48860;DHT22;34679;51.436;-2.518;2022-09-20T19:59:34;15.90;99.90
48860;DHT22;34679;51.436;-2.518;2022-09-20T20:02:00;15.90;99.90
48860;DHT22;34679;51.436;-2.518;2022-09-20T20:04:26;15.90;99.90
48860;DHT22;34679;51.436;-2.518;2022-09-20T20:12:47;16.00;99.90
48860;DHT22;34679;51.436;-2.518;2022-09-20T20:15:44;15.90;99.90
48860;DHT22;34679;51.436;-2.518;2022-09-20T20:21:02;15.70;99.90
48860;DHT22;34679;51.436;-2.518;2022-09-20T20:26:23;15.70;99.90
48860;DHT22;34679;51.436;-2.518;2022-09-20T20:28:49;15.50;99.90
48860;DHT22;34679;51.436;-2.518;2022-09-20T20:31:16;15.40;99.90
48860;DHT22;34679;51.436;-2.518;2022-09-20T20:33:42;15.50;99.90
48860;DHT22;34679;51.436;-2.518;2022-09-20T20:36:08;15.40;99.90
48860;DHT22;34679;51.436;-2.518;2022-09-20T20:38:39;15.40;99.90
48860;DHT22;34679;51.436;-2.518;2022-09-20T20:41:13;15.20;99.90
48860;DHT22;34679;51.436;-2.518;2022-09-20T20:43:41;15.10;99.90
48860;DHT22;34679;51.436;-2.518;2022-09-20T20:46:09;15.10;99.90
48860;DHT22;34679;51.436;-2.518;2022-09-20T20:48:36;15.10;99.90
48860;DHT22;34679;51.436;-2.518;2022-09-20T20:51:08;15.10;99.90
48860;DHT22;34679;51.436;-2.518;2022-09-20T20:53:36;15.00;99.90
48860;DHT22;34679;51.436;-2.518;2022-09-20T20:56:07;15.00;99.90
48860;DHT22;34679;51.436;-2.518;2022-09-20T20:58:36;15.00;99.90
48860;DHT22;34679;51.436;-2.518;2022-09-20T21:01:13;14.90;99.90
48860;DHT22;34679;51.436;-2.518;2022-09-20T21:03:41;14.80;99.90
48860;DHT22;34679;51.436;-2.518;2022-09-20T21:06:08;14.80;99.90
48860;DHT22;34679;51.436;-2.518;2022-09-20T21:08:42;14.80;99.90
48860;DHT22;34679;51.436;-2.518;2022-09-20T21:11:24;14.70;99.90
48860;DHT22;34679;51.436;-2.518;2022-09-20T21:13:51;14.70;99.90
48860;DHT22;34679;51.436;-2.518;2022-09-20T21:16:20;14.60;99.90
48860;DHT22;34679;51.436;-2.518;2022-09-20T21:18:47;14.50;99.90
48860;DHT22;34679;51.436;-2.518;2022-09-20T21:23:40;14.40;99.90
48860;DHT22;34679;51.436;-2.518;2022-09-20T21:26:08;14.30;99.90
48860;DHT22;34679;51.436;-2.518;2022-09-20T21:28:38;14.30;99.90
48860;DHT22;34679;51.436;-2.518;2022-09-20T21:31:06;14.30;99.90
48860;DHT22;34679;51.436;-2.518;2022-09-20T21:33:35;14.20;99.90
48860;DHT22;34679;51.436;-2.518;2022-09-20T21:36:01;14.30;99.90
48860;DHT22;34679;51.436;-2.518;2022-09-20T21:38:28;14.30;99.90
48860;DHT22;34679;51.436;-2.518;2022-09-20T21:41:04;14.30;99.90
48860;DHT22;34679;51.436;-2.518;2022-09-20T21:43:32;14.40;99.90
48860;DHT22;34679;51.436;-2.518;2022-09-20T21:45:57;14.30;99.90
48860;DHT22;34679;51.436;-2.518;2022-09-20T21:48:24;14.20;99.90
48860;DHT22;34679;51.436;-2.518;2022-09-20T21:50:51;14.20;99.90